Flight Track Log - Related Links

Times and Time Zones

All times are in EDT time to prevent confusion due to time zone crossing. See the XSR387 flight status page for this flight to view local times or setup timezone preferences in your user account.


Time Position Orientation Groundspeed Altitude Reporting Facility
EDT Latitude Longitude Course Direction KTS MPH feet Rate Location/Type
Wed 09:12:55 PM 36.0258 -95.9914 182° South 124 143 1,200  Level Kansas City Center
Wed 09:13:22 PM 36.0144 -95.9919 182° South 130 150 1,700 1,672 Climbing Kansas City Center
Wed 09:13:56 PM 35.9917 -96.0086 211° Southwest 141 162 2,900 1,645 Climbing Kansas City Center
Wed 09:14:24 PM 35.9933 -96.0286 276° West 157 181 3,400 1,400 Climbing Kansas City Center
Wed 09:14:56 PM 36.0158 -96.0494 323° Northwest 191 220 4,300 1,574 Climbing Kansas City Center
Wed 09:15:25 PM 36.0375 -96.0550 348° North 180 207 5,000 1,467 Climbing Kansas City Center
Wed 09:16:26 PM 36.0844 -96.0725 343° North 177 204 6,500 1,317 Climbing Kansas City Center
Wed 09:17:28 PM 36.1311 -96.0917 342° North 175 201 7,700 1,317 Climbing Kansas City Center
Wed 09:18:29 PM 36.1775 -96.1153 338° Northwest 178 205 9,200 1,082 Climbing Kansas City Center
Wed 09:19:30 PM 36.2239 -96.1394 337° Northwest 179 206 9,900 341 Climbing Kansas City Center
Wed 09:20:32 PM 36.2808 -96.1675 338° Northwest 203 234 9,900 49 Level Kansas City Center
Wed 09:21:33 PM 36.3442 -96.1950 341° North 229 264 10,000 49 Climbing Kansas City Center
Wed 09:22:35 PM 36.4075 -96.2217 341° North 237 273 10,000  Level Kansas City Center
Wed 09:23:36 PM 36.4547 -96.2736 319° Northwest 234 269 10,000  Level Kansas City Center
Wed 09:24:37 PM 36.4836 -96.3417 298° West 226 260 10,000  Level Kansas City Center
Wed 09:25:39 PM 36.5119 -96.4089 298° West 221 254 10,000  Level Kansas City Center
Wed 09:26:40 PM 36.5403 -96.4919 293° West 219 252 10,000  Level Kansas City Center
Wed 09:27:41 PM 36.5617 -96.5631 291° West 219 252 10,000  Level Kansas City Center
Wed 09:28:43 PM 36.5817 -96.6372 289° West 223 257 10,000  Level Kansas City Center
Wed 09:29:44 PM 36.6042 -96.7114 291° West 227 261 10,000 -49 Level Kansas City Center
Wed 09:30:45 PM 36.6261 -96.7825 291° West 223 257 9,900 -537 Descending Kansas City Center
Wed 09:31:47 PM 36.6489 -96.8508 293° West 216 249 8,900 -927 Descending Kansas City Center
Wed 09:32:48 PM 36.6722 -96.9178 294° West 213 245 8,000 -443 Descending Kansas City Center
Wed 09:33:49 PM 36.6931 -96.9792 293° West 199 229 8,000  Level Kansas City Center
Wed 09:34:50 PM 36.7111 -97.0386 291° West 187 215 8,000  Level Kansas City Center
Wed 09:35:52 PM 36.7353 -97.1022 295° West 195 224 8,000  Level Kansas City Center
Wed 09:36:53 PM 36.7847 -97.1347 332° Northwest 202 232 8,000 49 Level Kansas City Center
Wed 09:37:54 PM 36.8311 -97.1578 338° Northwest 186 214 8,100  Climbing Kansas City Center
Wed 09:38:55 PM 36.8886 -97.1792 343° North 194 223 8,000 -57 Descending Kansas City Center
Wed 09:39:40 PM 36.9322 -97.1958 343° North 198 228 8,000  Level Kansas City Center
Wed 09:39:56 PM 36.9394 -97.1994 338° Northwest 193 222 8,000  Level Kansas City Center
Wed 09:40:29 PM 36.9767 -97.1994 360° North 194 223 8,000  Level Kansas City Center
Wed 09:40:58 PM 36.9944 -97.1956 10° North 195 224 8,000  Level Kansas City Center
Wed 09:41:29 PM 37.0306 -97.1908 North 191 220 8,000  Level Kansas City Center
Wed 09:41:59 PM 37.0464 -97.1881 North 190 219 8,000 98 Level Kansas City Center
Wed 09:42:30 PM 37.0822 -97.1828 North 189 217 8,100  Climbing Kansas City Center
Wed 09:43:00 PM 37.1003 -97.1803 North 193 222 8,000  Descending Kansas City Center
Wed 09:43:31 PM 37.1364 -97.1769 North 190 219 8,100  Climbing Kansas City Center
Wed 09:44:01 PM 37.1531 -97.1717 14° North 192 221 8,000  Descending Kansas City Center
Wed 09:44:31 PM 37.1903 -97.1686 North 194 223 8,100  Climbing Kansas City Center
Wed 09:45:03 PM 37.2175 -97.1614 12° North 193 222 8,000  Descending Kansas City Center
Wed 09:45:32 PM 37.2442 -97.1600 North 202 232 8,100 -98 Climbing Kansas City Center
Wed 09:46:04 PM 37.2747 -97.1544 North 201 231 7,900 -500 Descending Kansas City Center
Wed 09:46:32 PM 37.3044 -97.1533 North 212 244 7,600 -787 Descending Kansas City Center
Wed 09:47:05 PM 37.3358 -97.1478 North 213 245 7,100 -787 Descending Kansas City Center
Wed 09:47:33 PM 37.3667 -97.1461 North 230 265 6,800 -787 Descending Kansas City Center
Wed 09:48:06 PM 37.3986 -97.1442 North 221 254 6,300 -787 Descending Kansas City Center
Wed 09:48:34 PM 37.4306 -97.1544 346° North 231 266 6,000 -787 Descending Kansas City Center
Wed 09:49:07 PM 37.4619 -97.1572 356° North 228 262 5,500 -800 Descending Kansas City Center
Wed 09:49:34 PM 37.4992 -97.1672 348° North 230 265 5,200 -387 Descending Kansas City Center
Wed 09:50:09 PM 37.5253 -97.1708 354° North 231 266 5,100 -98 Descending Kansas City Center
Wed 09:50:35 PM 37.5592 -97.1789 349° North 218 251 5,100  Level Kansas City Center
Wed 09:51:10 PM 37.5847 -97.1806 357° North 225 259 5,100 -590 Level Kansas City Center
Wed 09:51:36 PM 37.6167 -97.1858 353° North 203 234 4,500 -1,082 Descending Kansas City Center
Wed 09:52:11 PM 37.6417 -97.1861 359° North 214 246 4,000 -1,000 Descending Kansas City Center
Wed 09:52:36 PM 37.6761 -97.1922 352° North 218 251 3,500 -787 Descending Kansas City Center
Wed 09:53:12 PM 37.7006 -97.1906 North 212 244 3,200 -393 Descending Kansas City Center
Wed 09:53:37 PM 37.7347 -97.1908 360° North 208 239 3,100 -492 Descending Kansas City Center
Wed 09:54:13 PM 37.7622 -97.1853 North 195 224 2,700 -590 Descending Kansas City Center
Wed 09:54:38 PM 37.7789 -97.1892 350° North 145 167 2,500 -492 Descending Kansas City Center
Wed 09:55:14 PM 37.7775 -97.2097 265° West 149 171 2,200 -600 Descending Kansas City Center
Wed 09:55:38 PM 37.7669 -97.2175 210° Southwest 101 116 1,900 -492 Descending Kansas City Center
Wed 09:56:15 PM 37.7525 -97.2225 195° South 128 147 1,700 -324 Descending Kansas City Center

Login

Don't have an account? Register now (free) for customized features, flight alerts, and more!